sensor_id;sensor_type;location;lat;lon;timestamp;P1;durP1;ratioP1;P2;durP2;ratioP2
25125;SDS011;13106;50.808;5.670;2022-07-22T00:01:01;22.55;;;8.10;;
25125;SDS011;13106;50.808;5.670;2022-07-22T00:03:27;20.55;;;8.30;;
25125;SDS011;13106;50.808;5.670;2022-07-22T00:05:53;21.42;;;8.38;;
25125;SDS011;13106;50.808;5.670;2022-07-22T00:08:19;25.90;;;8.13;;
25125;SDS011;13106;50.808;5.670;2022-07-22T00:10:45;16.85;;;8.57;;
25125;SDS011;13106;50.808;5.670;2022-07-22T00:13:11;23.48;;;9.23;;
25125;SDS011;13106;50.808;5.670;2022-07-22T00:15:37;23.73;;;8.80;;
25125;SDS011;13106;50.808;5.670;2022-07-22T00:18:03;20.48;;;8.73;;
25125;SDS011;13106;50.808;5.670;2022-07-22T00:20:29;22.85;;;9.02;;
25125;SDS011;13106;50.808;5.670;2022-07-22T00:22:55;25.10;;;9.13;;
25125;SDS011;13106;50.808;5.670;2022-07-22T00:25:21;18.98;;;8.27;;
25125;SDS011;13106;50.808;5.670;2022-07-22T00:27:47;22.05;;;8.50;;
25125;SDS011;13106;50.808;5.670;2022-07-22T00:30:13;20.02;;;8.10;;
25125;SDS011;13106;50.808;5.670;2022-07-22T00:32:39;23.20;;;7.50;;
25125;SDS011;13106;50.808;5.670;2022-07-22T00:35:05;19.35;;;6.65;;
25125;SDS011;13106;50.808;5.670;2022-07-22T00:37:32;19.10;;;6.45;;
25125;SDS011;13106;50.808;5.670;2022-07-22T00:39:58;14.07;;;6.38;;
25125;SDS011;13106;50.808;5.670;2022-07-22T00:42:24;15.65;;;6.60;;
25125;SDS011;13106;50.808;5.670;2022-07-22T00:44:50;21.25;;;6.82;;
25125;SDS011;13106;50.808;5.670;2022-07-22T00:47:16;17.40;;;6.03;;
25125;SDS011;13106;50.808;5.670;2022-07-22T00:49:42;17.60;;;6.05;;
25125;SDS011;13106;50.808;5.670;2022-07-22T00:52:08;17.98;;;8.23;;
25125;SDS011;13106;50.808;5.670;2022-07-22T00:54:34;18.67;;;10.07;;
25125;SDS011;13106;50.808;5.670;2022-07-22T00:57:02;12.65;;;5.57;;
25125;SDS011;13106;50.808;5.670;2022-07-22T00:59:28;17.00;;;5.43;;
25125;SDS011;13106;50.808;5.670;2022-07-22T01:01:54;21.95;;;6.35;;
25125;SDS011;13106;50.808;5.670;2022-07-22T01:04:20;19.50;;;5.45;;
25125;SDS011;13106;50.808;5.670;2022-07-22T01:06:46;16.67;;;6.05;;
25125;SDS011;13106;50.808;5.670;2022-07-22T01:09:12;16.67;;;6.25;;
25125;SDS011;13106;50.808;5.670;2022-07-22T01:11:39;15.25;;;5.55;;
25125;SDS011;13106;50.808;5.670;2022-07-22T01:14:05;11.30;;;5.70;;
25125;SDS011;13106;50.808;5.670;2022-07-22T01:16:31;13.68;;;5.43;;
25125;SDS011;13106;50.808;5.670;2022-07-22T01:18:57;16.02;;;5.65;;
25125;SDS011;13106;50.808;5.670;2022-07-22T01:21:23;12.30;;;4.70;;
25125;SDS011;13106;50.808;5.670;2022-07-22T01:23:49;12.32;;;4.78;;
25125;SDS011;13106;50.808;5.670;2022-07-22T01:26:16;9.70;;;4.70;;
25125;SDS011;13106;50.808;5.670;2022-07-22T01:28:42;12.02;;;5.57;;
25125;SDS011;13106;50.808;5.670;2022-07-22T01:31:08;14.85;;;5.40;;
25125;SDS011;13106;50.808;5.670;2022-07-22T01:33:35;13.38;;;5.13;;
25125;SDS011;13106;50.808;5.670;2022-07-22T01:36:01;10.73;;;4.82;;
25125;SDS011;13106;50.808;5.670;2022-07-22T01:38:28;10.80;;;5.05;;
25125;SDS011;13106;50.808;5.670;2022-07-22T01:40:54;15.38;;;4.50;;
25125;SDS011;13106;50.808;5.670;2022-07-22T01:43:20;13.82;;;4.47;;
25125;SDS011;13106;50.808;5.670;2022-07-22T01:45:47;8.38;;;4.25;;
25125;SDS011;13106;50.808;5.670;2022-07-22T01:48:13;13.05;;;4.07;;
25125;SDS011;13106;50.808;5.670;2022-07-22T01:50:40;9.23;;;3.78;;
25125;SDS011;13106;50.808;5.670;2022-07-22T01:53:06;11.43;;;3.55;;
25125;SDS011;13106;50.808;5.670;2022-07-22T01:55:32;10.68;;;3.55;;
25125;SDS011;13106;50.808;5.670;2022-07-22T01:57:58;9.85;;;3.90;;
25125;SDS011;13106;50.808;5.670;2022-07-22T02:00:24;9.98;;;4.15;;
25125;SDS011;13106;50.808;5.670;2022-07-22T02:02:51;6.78;;;3.78;;
25125;SDS011;13106;50.808;5.670;2022-07-22T02:05:17;9.68;;;4.15;;
25125;SDS011;13106;50.808;5.670;2022-07-22T02:07:43;10.95;;;3.78;;
25125;SDS011;13106;50.808;5.670;2022-07-22T02:10:09;9.45;;;4.07;;
25125;SDS011;13106;50.808;5.670;2022-07-22T02:12:35;11.90;;;4.00;;
25125;SDS011;13106;50.808;5.670;2022-07-22T02:15:01;6.55;;;3.70;;
25125;SDS011;13106;50.808;5.670;2022-07-22T02:17:27;9.27;;;3.60;;
25125;SDS011;13106;50.808;5.670;2022-07-22T02:19:53;14.30;;;3.67;;
25125;SDS011;13106;50.808;5.670;2022-07-22T02:22:19;6.90;;;3.38;;
25125;SDS011;13106;50.808;5.670;2022-07-22T02:24:45;9.93;;;3.47;;
25125;SDS011;13106;50.808;5.670;2022-07-22T02:27:11;7.50;;;3.80;;
25125;SDS011;13106;50.808;5.670;2022-07-22T02:29:37;6.63;;;4.65;;
25125;SDS011;13106;50.808;5.670;2022-07-22T02:32:04;8.48;;;4.00;;
25125;SDS011;13106;50.808;5.670;2022-07-22T02:34:30;9.18;;;4.18;;
25125;SDS011;13106;50.808;5.670;2022-07-22T02:36:56;11.32;;;4.65;;
25125;SDS011;13106;50.808;5.670;2022-07-22T02:39:22;12.48;;;4.47;;
25125;SDS011;13106;50.808;5.670;2022-07-22T02:41:48;9.00;;;4.45;;
25125;SDS011;13106;50.808;5.670;2022-07-22T02:44:14;11.63;;;4.38;;
25125;SDS011;13106;50.808;5.670;2022-07-22T02:46:40;7.90;;;4.60;;
25125;SDS011;13106;50.808;5.670;2022-07-22T02:49:06;9.95;;;4.18;;
25125;SDS011;13106;50.808;5.670;2022-07-22T02:51:32;7.82;;;3.30;;
25125;SDS011;13106;50.808;5.670;2022-07-22T02:53:58;7.75;;;4.10;;
25125;SDS011;13106;50.808;5.670;2022-07-22T02:56:24;6.20;;;3.60;;
25125;SDS011;13106;50.808;5.670;2022-07-22T02:58:50;6.60;;;3.20;;
25125;SDS011;13106;50.808;5.670;2022-07-22T03:01:18;6.53;;;2.92;;
25125;SDS011;13106;50.808;5.670;2022-07-22T03:03:44;9.35;;;3.20;;
25125;SDS011;13106;50.808;5.670;2022-07-22T03:06:11;5.05;;;3.28;;
25125;SDS011;13106;50.808;5.670;2022-07-22T03:08:37;7.50;;;3.75;;
25125;SDS011;13106;50.808;5.670;2022-07-22T03:11:04;6.65;;;3.08;;
25125;SDS011;13106;50.808;5.670;2022-07-22T03:13:30;5.20;;;3.22;;
25125;SDS011;13106;50.808;5.670;2022-07-22T03:15:56;4.35;;;3.80;;
25125;SDS011;13106;50.808;5.670;2022-07-22T03:18:22;7.30;;;3.90;;
25125;SDS011;13106;50.808;5.670;2022-07-22T03:20:48;5.40;;;3.13;;
25125;SDS011;13106;50.808;5.670;2022-07-22T03:23:14;5.68;;;2.90;;
25125;SDS011;13106;50.808;5.670;2022-07-22T03:25:40;6.93;;;3.50;;
25125;SDS011;13106;50.808;5.670;2022-07-22T03:28:06;4.00;;;2.50;;
25125;SDS011;13106;50.808;5.670;2022-07-22T03:30:32;3.35;;;2.30;;
25125;SDS011;13106;50.808;5.670;2022-07-22T03:32:58;4.57;;;2.20;;
25125;SDS011;13106;50.808;5.670;2022-07-22T03:35:24;4.80;;;2.30;;
25125;SDS011;13106;50.808;5.670;2022-07-22T03:37:51;3.53;;;1.77;;
25125;SDS011;13106;50.808;5.670;2022-07-22T03:40:17;3.58;;;2.10;;
25125;SDS011;13106;50.808;5.670;2022-07-22T03:42:43;2.80;;;2.15;;
25125;SDS011;13106;50.808;5.670;2022-07-22T03:45:09;3.97;;;2.15;;
25125;SDS011;13106;50.808;5.670;2022-07-22T03:47:35;3.15;;;2.20;;
25125;SDS011;13106;50.808;5.670;2022-07-22T03:50:02;4.65;;;2.30;;
25125;SDS011;13106;50.808;5.670;2022-07-22T03:52:28;4.55;;;2.30;;
25125;SDS011;13106;50.808;5.670;2022-07-22T03:54:54;3.35;;;2.10;;
25125;SDS011;13106;50.808;5.670;2022-07-22T03:57:20;3.85;;;2.30;;
25125;SDS011;13106;50.808;5.670;2022-07-22T03:59:47;7.93;;;2.72;;
25125;SDS011;13106;50.808;5.670;2022-07-22T04:02:13;6.30;;;2.38;;
25125;SDS011;13106;50.808;5.670;2022-07-22T04:04:39;3.55;;;2.40;;
25125;SDS011;13106;50.808;5.670;2022-07-22T04:07:05;5.97;;;2.75;;
25125;SDS011;13106;50.808;5.670;2022-07-22T04:09:31;5.03;;;3.10;;
25125;SDS011;13106;50.808;5.670;2022-07-22T04:11:58;8.00;;;2.80;;
25125;SDS011;13106;50.808;5.670;2022-07-22T04:14:24;6.40;;;2.80;;
25125;SDS011;13106;50.808;5.670;2022-07-22T04:16:50;3.10;;;2.50;;
25125;SDS011;13106;50.808;5.670;2022-07-22T04:19:16;7.72;;;2.97;;
25125;SDS011;13106;50.808;5.670;2022-07-22T04:21:42;4.68;;;2.63;;
25125;SDS011;13106;50.808;5.670;2022-07-22T04:24:08;7.65;;;2.90;;
25125;SDS011;13106;50.808;5.670;2022-07-22T04:26:34;2.63;;;2.35;;
25125;SDS011;13106;50.808;5.670;2022-07-22T04:29:01;5.07;;;2.80;;
25125;SDS011;13106;50.808;5.670;2022-07-22T04:31:27;6.53;;;2.65;;
25125;SDS011;13106;50.808;5.670;2022-07-22T04:33:53;3.97;;;2.67;;
25125;SDS011;13106;50.808;5.670;2022-07-22T04:36:19;6.25;;;3.15;;
25125;SDS011;13106;50.808;5.670;2022-07-22T04:38:45;7.22;;;3.50;;
25125;SDS011;13106;50.808;5.670;2022-07-22T04:41:12;5.78;;;3.10;;
25125;SDS011;13106;50.808;5.670;2022-07-22T04:43:38;5.75;;;3.10;;
25125;SDS011;13106;50.808;5.670;2022-07-22T04:46:04;5.60;;;3.42;;
25125;SDS011;13106;50.808;5.670;2022-07-22T04:48:30;6.93;;;3.15;;
25125;SDS011;13106;50.808;5.670;2022-07-22T04:50:59;5.40;;;3.47;;
25125;SDS011;13106;50.808;5.670;2022-07-22T04:53:26;4.57;;;3.40;;
25125;SDS011;13106;50.808;5.670;2022-07-22T04:55:52;8.27;;;3.58;;
25125;SDS011;13106;50.808;5.670;2022-07-22T04:58:18;5.85;;;3.78;;
25125;SDS011;13106;50.808;5.670;2022-07-22T05:00:44;5.63;;;3.90;;
25125;SDS011;13106;50.808;5.670;2022-07-22T05:03:11;8.38;;;4.03;;
25125;SDS011;13106;50.808;5.670;2022-07-22T05:05:37;8.68;;;3.97;;
25125;SDS011;13106;50.808;5.670;2022-07-22T05:08:03;7.43;;;3.92;;
25125;SDS011;13106;50.808;5.670;2022-07-22T05:10:29;8.27;;;4.32;;
25125;SDS011;13106;50.808;5.670;2022-07-22T05:12:56;8.55;;;4.63;;
25125;SDS011;13106;50.808;5.670;2022-07-22T05:15:22;6.43;;;3.72;;
25125;SDS011;13106;50.808;5.670;2022-07-22T05:17:48;8.95;;;4.20;;
25125;SDS011;13106;50.808;5.670;2022-07-22T05:20:15;6.07;;;3.63;;
25125;SDS011;13106;50.808;5.670;2022-07-22T05:22:41;6.38;;;3.47;;
25125;SDS011;13106;50.808;5.670;2022-07-22T05:25:07;5.45;;;2.90;;
25125;SDS011;13106;50.808;5.670;2022-07-22T05:27:33;6.03;;;3.17;;
25125;SDS011;13106;50.808;5.670;2022-07-22T05:29:59;4.55;;;3.00;;
25125;SDS011;13106;50.808;5.670;2022-07-22T05:32:25;5.63;;;3.20;;
25125;SDS011;13106;50.808;5.670;2022-07-22T05:34:51;6.07;;;2.97;;
25125;SDS011;13106;50.808;5.670;2022-07-22T05:37:17;6.72;;;3.42;;
25125;SDS011;13106;50.808;5.670;2022-07-22T05:39:43;8.93;;;3.92;;
25125;SDS011;13106;50.808;5.670;2022-07-22T05:42:10;13.68;;;4.07;;
25125;SDS011;13106;50.808;5.670;2022-07-22T05:44:36;7.75;;;3.50;;
25125;SDS011;13106;50.808;5.670;2022-07-22T05:47:02;10.80;;;4.65;;
25125;SDS011;13106;50.808;5.670;2022-07-22T05:49:28;8.77;;;3.95;;
25125;SDS011;13106;50.808;5.670;2022-07-22T05:51:54;9.85;;;4.00;;
25125;SDS011;13106;50.808;5.670;2022-07-22T05:54:23;7.75;;;3.53;;
25125;SDS011;13106;50.808;5.670;2022-07-22T05:56:49;9.52;;;4.00;;
25125;SDS011;13106;50.808;5.670;2022-07-22T05:59:15;11.38;;;3.95;;
25125;SDS011;13106;50.808;5.670;2022-07-22T06:01:41;7.05;;;4.05;;
25125;SDS011;13106;50.808;5.670;2022-07-22T06:04:07;9.70;;;4.20;;
25125;SDS011;13106;50.808;5.670;2022-07-22T06:06:33;8.73;;;4.07;;
25125;SDS011;13106;50.808;5.670;2022-07-22T06:08:59;5.80;;;3.80;;
25125;SDS011;13106;50.808;5.670;2022-07-22T06:11:25;10.45;;;4.05;;
25125;SDS011;13106;50.808;5.670;2022-07-22T06:13:51;8.18;;;3.80;;
25125;SDS011;13106;50.808;5.670;2022-07-22T06:16:18;6.85;;;4.03;;
25125;SDS011;13106;50.808;5.670;2022-07-22T06:18:44;8.07;;;4.15;;
25125;SDS011;13106;50.808;5.670;2022-07-22T06:21:10;7.25;;;3.97;;
25125;SDS011;13106;50.808;5.670;2022-07-22T06:23:37;9.73;;;3.63;;
25125;SDS011;13106;50.808;5.670;2022-07-22T06:26:03;8.35;;;3.88;;
25125;SDS011;13106;50.808;5.670;2022-07-22T06:28:29;5.60;;;3.70;;
25125;SDS011;13106;50.808;5.670;2022-07-22T06:30:55;8.82;;;3.85;;
25125;SDS011;13106;50.808;5.670;2022-07-22T06:33:21;10.52;;;4.50;;
25125;SDS011;13106;50.808;5.670;2022-07-22T06:35:47;7.28;;;3.30;;
25125;SDS011;13106;50.808;5.670;2022-07-22T06:38:13;6.80;;;3.10;;
25125;SDS011;13106;50.808;5.670;2022-07-22T06:40:39;6.03;;;2.83;;
25125;SDS011;13106;50.808;5.670;2022-07-22T06:43:05;5.50;;;2.90;;
25125;SDS011;13106;50.808;5.670;2022-07-22T06:45:31;3.90;;;3.10;;
25125;SDS011;13106;50.808;5.670;2022-07-22T06:47:57;7.50;;;3.63;;
25125;SDS011;13106;50.808;5.670;2022-07-22T06:50:23;4.57;;;3.17;;
25125;SDS011;13106;50.808;5.670;2022-07-22T06:52:49;7.22;;;3.50;;
25125;SDS011;13106;50.808;5.670;2022-07-22T06:55:15;7.03;;;3.65;;
25125;SDS011;13106;50.808;5.670;2022-07-22T06:57:41;6.40;;;3.20;;
25125;SDS011;13106;50.808;5.670;2022-07-22T07:00:08;5.93;;;2.80;;
25125;SDS011;13106;50.808;5.670;2022-07-22T07:02:34;7.85;;;3.03;;
25125;SDS011;13106;50.808;5.670;2022-07-22T07:05:01;5.10;;;2.80;;
25125;SDS011;13106;50.808;5.670;2022-07-22T07:07:27;6.38;;;2.72;;
25125;SDS011;13106;50.808;5.670;2022-07-22T07:09:53;5.75;;;2.30;;
25125;SDS011;13106;50.808;5.670;2022-07-22T07:12:19;5.55;;;2.60;;
25125;SDS011;13106;50.808;5.670;2022-07-22T07:14:46;5.07;;;2.90;;
25125;SDS011;13106;50.808;5.670;2022-07-22T07:17:12;6.00;;;2.78;;
25125;SDS011;13106;50.808;5.670;2022-07-22T07:19:40;6.75;;;2.80;;
25125;SDS011;13106;50.808;5.670;2022-07-22T07:22:06;4.55;;;2.20;;
25125;SDS011;13106;50.808;5.670;2022-07-22T07:24:32;220.45;;;17.58;;
25125;SDS011;13106;50.808;5.670;2022-07-22T07:26:58;8.90;;;3.22;;
25125;SDS011;13106;50.808;5.670;2022-07-22T07:29:24;3.00;;;2.20;;
25125;SDS011;13106;50.808;5.670;2022-07-22T07:31:51;5.97;;;2.63;;
25125;SDS011;13106;50.808;5.670;2022-07-22T07:34:17;4.78;;;2.40;;
25125;SDS011;13106;50.808;5.670;2022-07-22T07:36:43;5.07;;;2.30;;
25125;SDS011;13106;50.808;5.670;2022-07-22T07:39:08;11.35;;;2.58;;
25125;SDS011;13106;50.808;5.670;2022-07-22T07:41:34;6.97;;;2.80;;
25125;SDS011;13106;50.808;5.670;2022-07-22T07:44:00;7.57;;;3.00;;
25125;SDS011;13106;50.808;5.670;2022-07-22T07:46:27;3.60;;;2.22;;
25125;SDS011;13106;50.808;5.670;2022-07-22T07:48:52;5.63;;;2.75;;
25125;SDS011;13106;50.808;5.670;2022-07-22T07:51:18;5.97;;;2.70;;
25125;SDS011;13106;50.808;5.670;2022-07-22T07:53:45;4.80;;;2.28;;
25125;SDS011;13106;50.808;5.670;2022-07-22T07:56:11;8.93;;;2.70;;
25125;SDS011;13106;50.808;5.670;2022-07-22T07:58:37;6.05;;;2.78;;
25125;SDS011;13106;50.808;5.670;2022-07-22T08:01:04;5.22;;;2.60;;
25125;SDS011;13106;50.808;5.670;2022-07-22T08:03:30;7.95;;;2.33;;
25125;SDS011;13106;50.808;5.670;2022-07-22T08:05:56;6.75;;;2.50;;
25125;SDS011;13106;50.808;5.670;2022-07-22T08:08:24;5.40;;;2.70;;
25125;SDS011;13106;50.808;5.670;2022-07-22T08:10:50;6.22;;;2.55;;
25125;SDS011;13106;50.808;5.670;2022-07-22T08:13:17;7.07;;;2.70;;
25125;SDS011;13106;50.808;5.670;2022-07-22T08:15:43;5.75;;;2.88;;
25125;SDS011;13106;50.808;5.670;2022-07-22T08:18:09;8.63;;;3.00;;
25125;SDS011;13106;50.808;5.670;2022-07-22T08:20:35;4.80;;;2.75;;
25125;SDS011;13106;50.808;5.670;2022-07-22T08:23:01;8.95;;;2.80;;
25125;SDS011;13106;50.808;5.670;2022-07-22T08:25:27;6.93;;;2.70;;
25125;SDS011;13106;50.808;5.670;2022-07-22T08:27:53;9.27;;;2.90;;
25125;SDS011;13106;50.808;5.670;2022-07-22T08:30:20;6.80;;;3.00;;
25125;SDS011;13106;50.808;5.670;2022-07-22T08:32:48;5.45;;;2.90;;
25125;SDS011;13106;50.808;5.670;2022-07-22T08:35:14;7.22;;;2.90;;
25125;SDS011;13106;50.808;5.670;2022-07-22T08:37:40;8.52;;;3.00;;
25125;SDS011;13106;50.808;5.670;2022-07-22T08:40:06;10.60;;;3.10;;
25125;SDS011;13106;50.808;5.670;2022-07-22T08:42:36;4.43;;;2.85;;
25125;SDS011;13106;50.808;5.670;2022-07-22T08:45:03;6.82;;;3.05;;
25125;SDS011;13106;50.808;5.670;2022-07-22T08:47:29;6.95;;;2.78;;
25125;SDS011;13106;50.808;5.670;2022-07-22T08:49:55;6.40;;;3.10;;
25125;SDS011;13106;50.808;5.670;2022-07-22T08:52:21;7.00;;;2.75;;
25125;SDS011;13106;50.808;5.670;2022-07-22T08:54:47;5.35;;;2.95;;
25125;SDS011;13106;50.808;5.670;2022-07-22T08:57:13;6.97;;;3.22;;
25125;SDS011;13106;50.808;5.670;2022-07-22T08:59:52;5.85;;;2.60;;
25125;SDS011;13106;50.808;5.670;2022-07-22T09:02:20;5.63;;;2.95;;
25125;SDS011;13106;50.808;5.670;2022-07-22T09:05:03;8.07;;;3.60;;
25125;SDS011;13106;50.808;5.670;2022-07-22T09:07:31;6.45;;;3.28;;
25125;SDS011;13106;50.808;5.670;2022-07-22T09:09:58;6.32;;;3.60;;
25125;SDS011;13106;50.808;5.670;2022-07-22T09:12:25;5.65;;;2.70;;
25125;SDS011;13106;50.808;5.670;2022-07-22T09:14:53;6.53;;;3.40;;
25125;SDS011;13106;50.808;5.670;2022-07-22T09:19:48;5.40;;;3.25;;
25125;SDS011;13106;50.808;5.670;2022-07-22T09:22:15;6.32;;;3.22;;
25125;SDS011;13106;50.808;5.670;2022-07-22T09:24:55;7.03;;;3.53;;
25125;SDS011;13106;50.808;5.670;2022-07-22T09:27:24;6.70;;;3.47;;
25125;SDS011;13106;50.808;5.670;2022-07-22T09:29:50;6.47;;;3.20;;
25125;SDS011;13106;50.808;5.670;2022-07-22T09:32:18;9.20;;;3.40;;
25125;SDS011;13106;50.808;5.670;2022-07-22T09:34:44;6.03;;;3.35;;
25125;SDS011;13106;50.808;5.670;2022-07-22T09:37:10;7.45;;;3.38;;
25125;SDS011;13106;50.808;5.670;2022-07-22T09:39:36;5.53;;;3.60;;
25125;SDS011;13106;50.808;5.670;2022-07-22T09:42:04;6.65;;;3.42;;
25125;SDS011;13106;50.808;5.670;2022-07-22T09:44:30;7.80;;;3.78;;
25125;SDS011;13106;50.808;5.670;2022-07-22T09:46:57;7.90;;;3.75;;
25125;SDS011;13106;50.808;5.670;2022-07-22T09:49:29;6.40;;;3.13;;
25125;SDS011;13106;50.808;5.670;2022-07-22T09:51:56;5.20;;;3.22;;
25125;SDS011;13106;50.808;5.670;2022-07-22T09:54:22;8.68;;;3.30;;
25125;SDS011;13106;50.808;5.670;2022-07-22T09:56:48;8.75;;;3.75;;
25125;SDS011;13106;50.808;5.670;2022-07-22T09:59:15;6.70;;;4.10;;
25125;SDS011;13106;50.808;5.670;2022-07-22T10:01:42;6.20;;;3.88;;
25125;SDS011;13106;50.808;5.670;2022-07-22T10:04:08;8.55;;;3.00;;
25125;SDS011;13106;50.808;5.670;2022-07-22T10:06:37;8.75;;;3.80;;
25125;SDS011;13106;50.808;5.670;2022-07-22T10:09:04;4.60;;;2.85;;
25125;SDS011;13106;50.808;5.670;2022-07-22T10:11:31;6.05;;;3.72;;
25125;SDS011;13106;50.808;5.670;2022-07-22T10:13:57;8.05;;;4.00;;
25125;SDS011;13106;50.808;5.670;2022-07-22T10:16:23;6.70;;;3.28;;
25125;SDS011;13106;50.808;5.670;2022-07-22T10:18:49;7.28;;;3.55;;
25125;SDS011;13106;50.808;5.670;2022-07-22T10:21:16;8.70;;;3.78;;
25125;SDS011;13106;50.808;5.670;2022-07-22T10:29:38;7.47;;;4.10;;
25125;SDS011;13106;50.808;5.670;2022-07-22T10:32:21;8.95;;;4.00;;
25125;SDS011;13106;50.808;5.670;2022-07-22T10:45:30;6.35;;;3.78;;
25125;SDS011;13106;50.808;5.670;2022-07-22T10:47:57;6.47;;;3.65;;
25125;SDS011;13106;50.808;5.670;2022-07-22T10:53:06;4.70;;;3.50;;
25125;SDS011;13106;50.808;5.670;2022-07-22T10:55:33;6.80;;;4.20;;
25125;SDS011;13106;50.808;5.670;2022-07-22T10:57:59;9.35;;;3.95;;
25125;SDS011;13106;50.808;5.670;2022-07-22T11:00:26;7.43;;;4.15;;
25125;SDS011;13106;50.808;5.670;2022-07-22T11:02:52;7.00;;;4.85;;
25125;SDS011;13106;50.808;5.670;2022-07-22T11:05:25;8.30;;;3.85;;
25125;SDS011;13106;50.808;5.670;2022-07-22T11:07:51;6.53;;;3.85;;
25125;SDS011;13106;50.808;5.670;2022-07-22T11:10:18;9.57;;;5.15;;
25125;SDS011;13106;50.808;5.670;2022-07-22T11:12:48;8.23;;;4.80;;
25125;SDS011;13106;50.808;5.670;2022-07-22T11:15:14;7.55;;;4.95;;
25125;SDS011;13106;50.808;5.670;2022-07-22T11:17:41;9.50;;;5.55;;
25125;SDS011;13106;50.808;5.670;2022-07-22T11:20:08;9.32;;;5.28;;
25125;SDS011;13106;50.808;5.670;2022-07-22T11:22:34;8.93;;;5.88;;
25125;SDS011;13106;50.808;5.670;2022-07-22T11:25:02;10.52;;;5.32;;
25125;SDS011;13106;50.808;5.670;2022-07-22T11:27:29;5.50;;;4.95;;
25125;SDS011;13106;50.808;5.670;2022-07-22T11:29:55;7.85;;;4.60;;
25125;SDS011;13106;50.808;5.670;2022-07-22T11:32:23;7.30;;;5.20;;
25125;SDS011;13106;50.808;5.670;2022-07-22T11:34:49;8.73;;;5.50;;
25125;SDS011;13106;50.808;5.670;2022-07-22T11:37:16;9.02;;;5.13;;
25125;SDS011;13106;50.808;5.670;2022-07-22T11:39:44;8.65;;;4.80;;
25125;SDS011;13106;50.808;5.670;2022-07-22T11:42:11;11.05;;;4.88;;
25125;SDS011;13106;50.808;5.670;2022-07-22T11:44:38;6.53;;;4.32;;
25125;SDS011;13106;50.808;5.670;2022-07-22T11:47:05;9.27;;;4.75;;
25125;SDS011;13106;50.808;5.670;2022-07-22T11:49:33;13.18;;;4.85;;
25125;SDS011;13106;50.808;5.670;2022-07-22T11:52:00;7.10;;;4.70;;
25125;SDS011;13106;50.808;5.670;2022-07-22T11:54:27;6.22;;;4.20;;
25125;SDS011;13106;50.808;5.670;2022-07-22T11:56:53;6.40;;;3.83;;
25125;SDS011;13106;50.808;5.670;2022-07-22T11:59:20;8.52;;;4.70;;
25125;SDS011;13106;50.808;5.670;2022-07-22T12:01:46;7.68;;;5.00;;
25125;SDS011;13106;50.808;5.670;2022-07-22T12:04:14;6.32;;;4.50;;
25125;SDS011;13106;50.808;5.670;2022-07-22T12:06:41;6.70;;;4.35;;
25125;SDS011;13106;50.808;5.670;2022-07-22T12:09:08;6.50;;;4.03;;
25125;SDS011;13106;50.808;5.670;2022-07-22T12:11:35;5.97;;;4.45;;
25125;SDS011;13106;50.808;5.670;2022-07-22T12:14:09;7.47;;;4.45;;
25125;SDS011;13106;50.808;5.670;2022-07-22T12:16:36;7.70;;;4.57;;
25125;SDS011;13106;50.808;5.670;2022-07-22T12:19:04;8.00;;;4.95;;
25125;SDS011;13106;50.808;5.670;2022-07-22T12:21:31;9.10;;;4.85;;
25125;SDS011;13106;50.808;5.670;2022-07-22T12:24:07;9.30;;;5.93;;
25125;SDS011;13106;50.808;5.670;2022-07-22T12:31:43;6.28;;;4.70;;
25125;SDS011;13106;50.808;5.670;2022-07-22T12:34:10;9.38;;;4.97;;
25125;SDS011;13106;50.808;5.670;2022-07-22T12:36:36;6.57;;;4.20;;
25125;SDS011;13106;50.808;5.670;2022-07-22T12:39:15;6.20;;;3.70;;
25125;SDS011;13106;50.808;5.670;2022-07-22T12:41:48;7.38;;;4.40;;
25125;SDS011;13106;50.808;5.670;2022-07-22T12:44:16;5.65;;;4.40;;
25125;SDS011;13106;50.808;5.670;2022-07-22T12:46:49;6.85;;;4.32;;
25125;SDS011;13106;50.808;5.670;2022-07-22T12:49:17;8.82;;;4.85;;
25125;SDS011;13106;50.808;5.670;2022-07-22T12:54:28;7.68;;;5.00;;
25125;SDS011;13106;50.808;5.670;2022-07-22T12:56:54;7.88;;;4.95;;
25125;SDS011;13106;50.808;5.670;2022-07-22T12:59:20;7.13;;;5.00;;
25125;SDS011;13106;50.808;5.670;2022-07-22T13:01:46;10.35;;;4.40;;
25125;SDS011;13106;50.808;5.670;2022-07-22T13:04:14;8.48;;;4.53;;
25125;SDS011;13106;50.808;5.670;2022-07-22T13:06:40;10.75;;;4.70;;
25125;SDS011;13106;50.808;5.670;2022-07-22T13:09:06;8.10;;;4.35;;
25125;SDS011;13106;50.808;5.670;2022-07-22T13:11:33;7.65;;;4.78;;
25125;SDS011;13106;50.808;5.670;2022-07-22T13:14:04;7.38;;;4.50;;
25125;SDS011;13106;50.808;5.670;2022-07-22T13:16:30;8.18;;;4.40;;
25125;SDS011;13106;50.808;5.670;2022-07-22T13:18:56;6.88;;;4.63;;
25125;SDS011;13106;50.808;5.670;2022-07-22T13:21:22;10.68;;;4.50;;
25125;SDS011;13106;50.808;5.670;2022-07-22T13:23:48;7.57;;;4.90;;
25125;SDS011;13106;50.808;5.670;2022-07-22T13:26:14;7.55;;;5.05;;
25125;SDS011;13106;50.808;5.670;2022-07-22T13:28:40;8.13;;;4.18;;
25125;SDS011;13106;50.808;5.670;2022-07-22T13:31:07;8.48;;;4.70;;
25125;SDS011;13106;50.808;5.670;2022-07-22T13:33:33;6.18;;;4.22;;
25125;SDS011;13106;50.808;5.670;2022-07-22T13:35:59;5.15;;;3.95;;
25125;SDS011;13106;50.808;5.670;2022-07-22T13:38:26;7.05;;;4.55;;
25125;SDS011;13106;50.808;5.670;2022-07-22T13:40:52;5.47;;;3.95;;
25125;SDS011;13106;50.808;5.670;2022-07-22T13:43:18;8.82;;;4.05;;
25125;SDS011;13106;50.808;5.670;2022-07-22T13:45:44;8.75;;;4.40;;
25125;SDS011;13106;50.808;5.670;2022-07-22T13:48:10;5.05;;;3.28;;
25125;SDS011;13106;50.808;5.670;2022-07-22T13:50:36;6.95;;;4.32;;
25125;SDS011;13106;50.808;5.670;2022-07-22T13:53:02;7.70;;;3.90;;
25125;SDS011;13106;50.808;5.670;2022-07-22T13:55:28;5.90;;;3.80;;
25125;SDS011;13106;50.808;5.670;2022-07-22T13:57:55;5.63;;;3.75;;
25125;SDS011;13106;50.808;5.670;2022-07-22T14:00:22;5.80;;;3.85;;
25125;SDS011;13106;50.808;5.670;2022-07-22T14:02:48;6.68;;;3.78;;
25125;SDS011;13106;50.808;5.670;2022-07-22T14:05:14;6.03;;;3.85;;
25125;SDS011;13106;50.808;5.670;2022-07-22T14:07:40;5.32;;;3.55;;
25125;SDS011;13106;50.808;5.670;2022-07-22T14:10:07;5.80;;;3.47;;
25125;SDS011;13106;50.808;5.670;2022-07-22T14:12:33;6.63;;;3.33;;
25125;SDS011;13106;50.808;5.670;2022-07-22T14:14:59;5.65;;;3.33;;
25125;SDS011;13106;50.808;5.670;2022-07-22T14:17:25;5.95;;;3.22;;
25125;SDS011;13106;50.808;5.670;2022-07-22T14:19:51;5.60;;;3.08;;
25125;SDS011;13106;50.808;5.670;2022-07-22T14:22:17;5.45;;;3.05;;
25125;SDS011;13106;50.808;5.670;2022-07-22T14:24:43;5.47;;;3.35;;
25125;SDS011;13106;50.808;5.670;2022-07-22T14:27:09;6.45;;;3.22;;
25125;SDS011;13106;50.808;5.670;2022-07-22T14:29:35;4.65;;;3.55;;
25125;SDS011;13106;50.808;5.670;2022-07-22T14:32:01;4.35;;;2.90;;
25125;SDS011;13106;50.808;5.670;2022-07-22T14:34:27;4.85;;;2.88;;
25125;SDS011;13106;50.808;5.670;2022-07-22T14:36:53;5.55;;;2.75;;
25125;SDS011;13106;50.808;5.670;2022-07-22T14:39:19;5.90;;;3.28;;
25125;SDS011;13106;50.808;5.670;2022-07-22T14:41:45;6.88;;;3.00;;
25125;SDS011;13106;50.808;5.670;2022-07-22T14:44:12;5.47;;;2.60;;
25125;SDS011;13106;50.808;5.670;2022-07-22T14:46:38;3.67;;;2.60;;
25125;SDS011;13106;50.808;5.670;2022-07-22T14:49:04;5.63;;;2.70;;
25125;SDS011;13106;50.808;5.670;2022-07-22T14:51:30;4.85;;;2.70;;
25125;SDS011;13106;50.808;5.670;2022-07-22T14:53:56;4.40;;;2.92;;
25125;SDS011;13106;50.808;5.670;2022-07-22T14:56:22;6.15;;;2.75;;
25125;SDS011;13106;50.808;5.670;2022-07-22T14:58:48;4.68;;;2.42;;
25125;SDS011;13106;50.808;5.670;2022-07-22T15:01:14;4.43;;;2.75;;
25125;SDS011;13106;50.808;5.670;2022-07-22T15:03:41;5.45;;;2.88;;
25125;SDS011;13106;50.808;5.670;2022-07-22T15:06:07;6.40;;;2.40;;
25125;SDS011;13106;50.808;5.670;2022-07-22T15:08:34;3.72;;;2.63;;
25125;SDS011;13106;50.808;5.670;2022-07-22T15:11:00;4.22;;;2.17;;